sensor_id;sensor_type;location;lat;lon;timestamp;temperature;humidity
30889;DHT22;51092;50.874;7.024;2023-04-01T00:00:39;11.30;90.90
30889;DHT22;51092;50.874;7.024;2023-04-01T00:01:41;11.30;90.60
30889;DHT22;51092;50.874;7.024;2023-04-01T00:02:43;11.30;90.70
30889;DHT22;51092;50.874;7.024;2023-04-01T00:03:45;11.30;90.90
30889;DHT22;51092;50.874;7.024;2023-04-01T00:04:48;11.30;91.10
30889;DHT22;51092;50.874;7.024;2023-04-01T00:05:49;11.30;90.60
30889;DHT22;51092;50.874;7.024;2023-04-01T00:06:52;11.30;90.40
30889;DHT22;51092;50.874;7.024;2023-04-01T00:07:54;11.30;90.40
30889;DHT22;51092;50.874;7.024;2023-04-01T00:08:56;11.30;90.40
30889;DHT22;51092;50.874;7.024;2023-04-01T00:09:58;11.30;90.50
30889;DHT22;51092;50.874;7.024;2023-04-01T00:11:00;11.30;90.30
30889;DHT22;51092;50.874;7.024;2023-04-01T00:12:02;11.30;90.50
30889;DHT22;51092;50.874;7.024;2023-04-01T00:13:04;11.30;90.40
30889;DHT22;51092;50.874;7.024;2023-04-01T00:14:07;11.30;90.40
30889;DHT22;51092;50.874;7.024;2023-04-01T00:15:11;11.40;90.40
30889;DHT22;51092;50.874;7.024;2023-04-01T00:16:14;11.40;90.20
30889;DHT22;51092;50.874;7.024;2023-04-01T00:17:17;11.30;90.10
30889;DHT22;51092;50.874;7.024;2023-04-01T00:18:18;11.30;90.30
30889;DHT22;51092;50.874;7.024;2023-04-01T00:19:21;11.30;90.30
30889;DHT22;51092;50.874;7.024;2023-04-01T00:20:24;11.30;90.20
30889;DHT22;51092;50.874;7.024;2023-04-01T00:21:26;11.30;90.20
30889;DHT22;51092;50.874;7.024;2023-04-01T00:22:28;11.30;90.20
30889;DHT22;51092;50.874;7.024;2023-04-01T00:23:30;11.30;90.20
30889;DHT22;51092;50.874;7.024;2023-04-01T00:24:32;11.30;90.30
30889;DHT22;51092;50.874;7.024;2023-04-01T00:25:33;11.40;90.20
30889;DHT22;51092;50.874;7.024;2023-04-01T00:26:36;11.30;90.40
30889;DHT22;51092;50.874;7.024;2023-04-01T00:27:37;11.40;90.00
30889;DHT22;51092;50.874;7.024;2023-04-01T00:28:40;11.30;90.20
30889;DHT22;51092;50.874;7.024;2023-04-01T00:29:42;11.30;90.20
30889;DHT22;51092;50.874;7.024;2023-04-01T00:30:45;11.40;90.20
30889;DHT22;51092;50.874;7.024;2023-04-01T00:31:48;11.30;90.20
30889;DHT22;51092;50.874;7.024;2023-04-01T00:32:51;11.30;90.30
30889;DHT22;51092;50.874;7.024;2023-04-01T00:33:53;11.40;90.20
30889;DHT22;51092;50.874;7.024;2023-04-01T00:34:55;11.40;90.20
30889;DHT22;51092;50.874;7.024;2023-04-01T00:36:05;11.40;90.20
30889;DHT22;51092;50.874;7.024;2023-04-01T00:37:08;11.40;90.20
30889;DHT22;51092;50.874;7.024;2023-04-01T00:38:09;11.30;90.30
30889;DHT22;51092;50.874;7.024;2023-04-01T00:39:12;11.30;90.40
30889;DHT22;51092;50.874;7.024;2023-04-01T00:40:24;11.30;90.30
30889;DHT22;51092;50.874;7.024;2023-04-01T00:41:27;11.30;90.10
30889;DHT22;51092;50.874;7.024;2023-04-01T00:42:29;11.30;90.30
30889;DHT22;51092;50.874;7.024;2023-04-01T00:43:32;11.40;90.30
30889;DHT22;51092;50.874;7.024;2023-04-01T00:44:34;11.30;90.20
30889;DHT22;51092;50.874;7.024;2023-04-01T00:45:37;11.30;90.30
30889;DHT22;51092;50.874;7.024;2023-04-01T00:46:40;11.30;90.40
30889;DHT22;51092;50.874;7.024;2023-04-01T00:47:43;11.30;90.20
30889;DHT22;51092;50.874;7.024;2023-04-01T00:48:48;11.30;90.20
30889;DHT22;51092;50.874;7.024;2023-04-01T00:49:54;11.30;90.30
30889;DHT22;51092;50.874;7.024;2023-04-01T00:50:59;11.30;90.30
30889;DHT22;51092;50.874;7.024;2023-04-01T00:52:04;11.40;90.20
30889;DHT22;51092;50.874;7.024;2023-04-01T00:53:07;11.40;90.10
30889;DHT22;51092;50.874;7.024;2023-04-01T00:54:11;11.30;90.20
30889;DHT22;51092;50.874;7.024;2023-04-01T00:55:14;11.40;90.20
30889;DHT22;51092;50.874;7.024;2023-04-01T00:56:21;11.30;90.20
30889;DHT22;51092;50.874;7.024;2023-04-01T00:57:27;11.30;90.30
30889;DHT22;51092;50.874;7.024;2023-04-01T00:58:34;11.30;90.20
30889;DHT22;51092;50.874;7.024;2023-04-01T00:59:40;11.30;90.10
30889;DHT22;51092;50.874;7.024;2023-04-01T01:00:45;11.40;90.10
30889;DHT22;51092;50.874;7.024;2023-04-01T01:01:47;11.30;90.40
30889;DHT22;51092;50.874;7.024;2023-04-01T01:02:51;11.30;90.30
30889;DHT22;51092;50.874;7.024;2023-04-01T01:03:53;11.30;90.30
30889;DHT22;51092;50.874;7.024;2023-04-01T01:04:55;11.30;90.20
30889;DHT22;51092;50.874;7.024;2023-04-01T01:06:10;11.30;90.30
30889;DHT22;51092;50.874;7.024;2023-04-01T01:07:20;11.40;90.10
30889;DHT22;51092;50.874;7.024;2023-04-01T01:08:33;11.30;90.30
30889;DHT22;51092;50.874;7.024;2023-04-01T01:09:45;11.40;90.10
30889;DHT22;51092;50.874;7.024;2023-04-01T01:10:49;11.40;90.00
30889;DHT22;51092;50.874;7.024;2023-04-01T01:11:56;11.40;90.10
30889;DHT22;51092;50.874;7.024;2023-04-01T01:13:08;11.40;89.90
30889;DHT22;51092;50.874;7.024;2023-04-01T01:14:22;11.40;90.00
30889;DHT22;51092;50.874;7.024;2023-04-01T01:15:28;11.40;90.10
30889;DHT22;51092;50.874;7.024;2023-04-01T01:16:36;11.30;90.20
30889;DHT22;51092;50.874;7.024;2023-04-01T01:17:47;11.30;90.20
30889;DHT22;51092;50.874;7.024;2023-04-01T01:19:00;11.30;90.10
30889;DHT22;51092;50.874;7.024;2023-04-01T01:20:36;11.30;90.30
30889;DHT22;51092;50.874;7.024;2023-04-01T01:22:00;11.30;90.10
30889;DHT22;51092;50.874;7.024;2023-04-01T01:23:36;11.30;90.30
30889;DHT22;51092;50.874;7.024;2023-04-01T01:24:53;11.30;90.30
30889;DHT22;51092;50.874;7.024;2023-04-01T01:26:14;11.40;89.90
30889;DHT22;51092;50.874;7.024;2023-04-01T01:27:26;11.40;89.90
30889;DHT22;51092;50.874;7.024;2023-04-01T01:28:38;11.40;90.00
30889;DHT22;51092;50.874;7.024;2023-04-01T01:31:20;11.40;90.00
30889;DHT22;51092;50.874;7.024;2023-04-01T01:33:57;11.40;89.80
30889;DHT22;51092;50.874;7.024;2023-04-01T01:35:14;11.30;90.00
30889;DHT22;51092;50.874;7.024;2023-04-01T01:36:20;11.40;90.00
30889;DHT22;51092;50.874;7.024;2023-04-01T01:37:24;11.30;90.00
30889;DHT22;51092;50.874;7.024;2023-04-01T01:38:31;11.40;89.90
30889;DHT22;51092;50.874;7.024;2023-04-01T01:39:36;11.40;90.00
30889;DHT22;51092;50.874;7.024;2023-04-01T01:40:41;11.40;90.10
30889;DHT22;51092;50.874;7.024;2023-04-01T01:41:45;11.30;90.20
30889;DHT22;51092;50.874;7.024;2023-04-01T01:42:52;11.40;90.30
30889;DHT22;51092;50.874;7.024;2023-04-01T01:43:56;11.40;90.30
30889;DHT22;51092;50.874;7.024;2023-04-01T01:45:00;11.30;90.10
30889;DHT22;51092;50.874;7.024;2023-04-01T01:46:06;11.30;90.10
30889;DHT22;51092;50.874;7.024;2023-04-01T01:47:09;11.30;90.20
30889;DHT22;51092;50.874;7.024;2023-04-01T01:48:12;11.30;90.30
30889;DHT22;51092;50.874;7.024;2023-04-01T01:49:14;11.30;90.40
30889;DHT22;51092;50.874;7.024;2023-04-01T01:50:19;11.30;90.20
30889;DHT22;51092;50.874;7.024;2023-04-01T01:51:22;11.30;90.40
30889;DHT22;51092;50.874;7.024;2023-04-01T01:52:27;11.30;90.40
30889;DHT22;51092;50.874;7.024;2023-04-01T01:53:28;11.30;90.10
30889;DHT22;51092;50.874;7.024;2023-04-01T01:54:31;11.20;90.50
30889;DHT22;51092;50.874;7.024;2023-04-01T01:55:35;11.30;90.60
30889;DHT22;51092;50.874;7.024;2023-04-01T01:56:38;11.30;90.40
30889;DHT22;51092;50.874;7.024;2023-04-01T01:57:40;11.30;90.30
30889;DHT22;51092;50.874;7.024;2023-04-01T01:58:45;11.30;90.40
30889;DHT22;51092;50.874;7.024;2023-04-01T01:59:49;11.20;90.50
30889;DHT22;51092;50.874;7.024;2023-04-01T02:00:55;11.20;90.80
30889;DHT22;51092;50.874;7.024;2023-04-01T02:01:58;11.20;91.00
30889;DHT22;51092;50.874;7.024;2023-04-01T02:03:01;11.20;90.90
30889;DHT22;51092;50.874;7.024;2023-04-01T02:04:03;11.20;91.30
30889;DHT22;51092;50.874;7.024;2023-04-01T02:05:08;11.10;91.10
30889;DHT22;51092;50.874;7.024;2023-04-01T02:06:15;11.10;92.20
30889;DHT22;51092;50.874;7.024;2023-04-01T02:07:21;11.10;92.50
30889;DHT22;51092;50.874;7.024;2023-04-01T02:08:27;11.00;93.30
30889;DHT22;51092;50.874;7.024;2023-04-01T02:09:31;11.00;93.00
30889;DHT22;51092;50.874;7.024;2023-04-01T02:10:35;11.00;93.70
30889;DHT22;51092;50.874;7.024;2023-04-01T02:11:42;10.90;93.80
30889;DHT22;51092;50.874;7.024;2023-04-01T02:12:46;10.90;94.30
30889;DHT22;51092;50.874;7.024;2023-04-01T02:13:53;10.80;95.80
30889;DHT22;51092;50.874;7.024;2023-04-01T02:14:59;10.80;95.30
30889;DHT22;51092;50.874;7.024;2023-04-01T02:16:07;10.80;95.50
30889;DHT22;51092;50.874;7.024;2023-04-01T02:17:13;10.80;97.10
30889;DHT22;51092;50.874;7.024;2023-04-01T02:18:16;10.70;99.00
30889;DHT22;51092;50.874;7.024;2023-04-01T02:19:21;10.60;98.70
30889;DHT22;51092;50.874;7.024;2023-04-01T02:20:24;10.60;99.30
30889;DHT22;51092;50.874;7.024;2023-04-01T02:21:30;10.60;98.80
30889;DHT22;51092;50.874;7.024;2023-04-01T02:22:34;10.60;98.60
30889;DHT22;51092;50.874;7.024;2023-04-01T02:23:38;10.60;97.80
30889;DHT22;51092;50.874;7.024;2023-04-01T02:24:42;10.50;98.20
30889;DHT22;51092;50.874;7.024;2023-04-01T02:25:47;10.50;99.90
30889;DHT22;51092;50.874;7.024;2023-04-01T02:26:49;10.50;99.90
30889;DHT22;51092;50.874;7.024;2023-04-01T02:27:53;10.50;98.40
30889;DHT22;51092;50.874;7.024;2023-04-01T02:28:56;10.50;99.30
30889;DHT22;51092;50.874;7.024;2023-04-01T02:30:00;10.50;99.90
30889;DHT22;51092;50.874;7.024;2023-04-01T02:31:02;10.40;99.90
30889;DHT22;51092;50.874;7.024;2023-04-01T02:32:06;10.40;99.90
30889;DHT22;51092;50.874;7.024;2023-04-01T02:33:08;10.40;99.90
30889;DHT22;51092;50.874;7.024;2023-04-01T02:34:11;10.30;99.90
30889;DHT22;51092;50.874;7.024;2023-04-01T02:35:14;10.30;99.90
30889;DHT22;51092;50.874;7.024;2023-04-01T02:36:18;10.30;99.90
30889;DHT22;51092;50.874;7.024;2023-04-01T02:37:22;10.20;99.90
30889;DHT22;51092;50.874;7.024;2023-04-01T02:38:24;10.20;99.90
30889;DHT22;51092;50.874;7.024;2023-04-01T02:39:26;10.10;99.90
30889;DHT22;51092;50.874;7.024;2023-04-01T02:40:28;10.10;99.90
30889;DHT22;51092;50.874;7.024;2023-04-01T02:41:31;10.10;99.90
30889;DHT22;51092;50.874;7.024;2023-04-01T02:42:33;10.10;99.90
30889;DHT22;51092;50.874;7.024;2023-04-01T02:43:35;10.10;99.90
30889;DHT22;51092;50.874;7.024;2023-04-01T02:44:37;10.10;99.90
30889;DHT22;51092;50.874;7.024;2023-04-01T02:45:39;10.00;99.90
30889;DHT22;51092;50.874;7.024;2023-04-01T02:46:41;10.00;99.90
30889;DHT22;51092;50.874;7.024;2023-04-01T02:47:43;10.00;99.90
30889;DHT22;51092;50.874;7.024;2023-04-01T02:48:44;10.10;99.90
30889;DHT22;51092;50.874;7.024;2023-04-01T02:49:47;10.10;99.90
30889;DHT22;51092;50.874;7.024;2023-04-01T02:50:48;10.00;99.90
30889;DHT22;51092;50.874;7.024;2023-04-01T02:51:50;10.00;99.90
30889;DHT22;51092;50.874;7.024;2023-04-01T02:52:54;10.00;99.90
30889;DHT22;51092;50.874;7.024;2023-04-01T02:53:57;10.00;99.90
30889;DHT22;51092;50.874;7.024;2023-04-01T02:54:58;10.00;99.90
30889;DHT22;51092;50.874;7.024;2023-04-01T02:56:01;10.00;99.90
30889;DHT22;51092;50.874;7.024;2023-04-01T02:57:02;10.00;99.90
30889;DHT22;51092;50.874;7.024;2023-04-01T02:58:05;10.00;99.90
30889;DHT22;51092;50.874;7.024;2023-04-01T02:59:06;10.00;99.90
30889;DHT22;51092;50.874;7.024;2023-04-01T03:00:10;10.00;99.90
30889;DHT22;51092;50.874;7.024;2023-04-01T03:01:12;10.00;99.90
30889;DHT22;51092;50.874;7.024;2023-04-01T03:02:16;10.00;99.90
30889;DHT22;51092;50.874;7.024;2023-04-01T03:03:17;10.00;99.90
30889;DHT22;51092;50.874;7.024;2023-04-01T03:04:19;10.00;99.90
30889;DHT22;51092;50.874;7.024;2023-04-01T03:05:21;9.90;99.90
30889;DHT22;51092;50.874;7.024;2023-04-01T03:06:23;10.00;99.90
30889;DHT22;51092;50.874;7.024;2023-04-01T03:07:25;10.00;99.90
30889;DHT22;51092;50.874;7.024;2023-04-01T03:08:29;9.90;99.90
30889;DHT22;51092;50.874;7.024;2023-04-01T03:09:31;9.90;99.90
30889;DHT22;51092;50.874;7.024;2023-04-01T03:10:33;9.90;99.90
30889;DHT22;51092;50.874;7.024;2023-04-01T03:11:35;9.90;99.90
30889;DHT22;51092;50.874;7.024;2023-04-01T03:12:37;9.90;99.90
30889;DHT22;51092;50.874;7.024;2023-04-01T03:13:40;9.90;99.90
30889;DHT22;51092;50.874;7.024;2023-04-01T03:14:41;9.90;99.90
30889;DHT22;51092;50.874;7.024;2023-04-01T03:15:44;9.90;99.90
30889;DHT22;51092;50.874;7.024;2023-04-01T03:16:45;9.90;99.90
30889;DHT22;51092;50.874;7.024;2023-04-01T03:17:48;9.90;99.90
30889;DHT22;51092;50.874;7.024;2023-04-01T03:18:49;9.90;99.90
30889;DHT22;51092;50.874;7.024;2023-04-01T03:19:54;9.90;99.90
30889;DHT22;51092;50.874;7.024;2023-04-01T03:20:55;10.00;99.90
30889;DHT22;51092;50.874;7.024;2023-04-01T03:21:58;9.90;99.90
30889;DHT22;51092;50.874;7.024;2023-04-01T03:22:59;9.90;99.90
30889;DHT22;51092;50.874;7.024;2023-04-01T03:24:03;9.90;99.90
30889;DHT22;51092;50.874;7.024;2023-04-01T03:25:06;9.90;99.90
30889;DHT22;51092;50.874;7.024;2023-04-01T03:26:09;9.90;99.90
30889;DHT22;51092;50.874;7.024;2023-04-01T03:27:11;9.90;99.90
30889;DHT22;51092;50.874;7.024;2023-04-01T03:28:14;10.00;99.90
30889;DHT22;51092;50.874;7.024;2023-04-01T03:29:15;10.00;99.90
30889;DHT22;51092;50.874;7.024;2023-04-01T03:30:18;10.00;99.90
30889;DHT22;51092;50.874;7.024;2023-04-01T03:31:19;10.00;99.90
30889;DHT22;51092;50.874;7.024;2023-04-01T03:32:22;10.00;99.90
30889;DHT22;51092;50.874;7.024;2023-04-01T03:33:23;10.00;99.90
30889;DHT22;51092;50.874;7.024;2023-04-01T03:34:26;10.00;99.90
30889;DHT22;51092;50.874;7.024;2023-04-01T03:35:27;10.00;99.90
30889;DHT22;51092;50.874;7.024;2023-04-01T03:36:30;10.00;99.90
30889;DHT22;51092;50.874;7.024;2023-04-01T03:37:33;10.00;99.90
30889;DHT22;51092;50.874;7.024;2023-04-01T03:38:34;10.00;99.90
30889;DHT22;51092;50.874;7.024;2023-04-01T03:39:39;9.90;99.90
30889;DHT22;51092;50.874;7.024;2023-04-01T03:40:42;9.90;99.90
30889;DHT22;51092;50.874;7.024;2023-04-01T03:41:45;10.00;99.90
30889;DHT22;51092;50.874;7.024;2023-04-01T03:42:47;9.90;99.90
30889;DHT22;51092;50.874;7.024;2023-04-01T03:43:49;10.00;99.90
30889;DHT22;51092;50.874;7.024;2023-04-01T03:44:51;10.00;99.90
30889;DHT22;51092;50.874;7.024;2023-04-01T03:45:53;10.00;99.90
30889;DHT22;51092;50.874;7.024;2023-04-01T03:46:55;10.00;99.90
30889;DHT22;51092;50.874;7.024;2023-04-01T03:47:58;10.00;99.90
30889;DHT22;51092;50.874;7.024;2023-04-01T03:48:59;10.10;99.90
30889;DHT22;51092;50.874;7.024;2023-04-01T03:50:03;10.00;99.90
30889;DHT22;51092;50.874;7.024;2023-04-01T03:51:06;10.00;99.90
30889;DHT22;51092;50.874;7.024;2023-04-01T03:52:09;10.10;99.90
30889;DHT22;51092;50.874;7.024;2023-04-01T03:53:12;10.00;99.90
30889;DHT22;51092;50.874;7.024;2023-04-01T03:54:14;10.00;99.90
30889;DHT22;51092;50.874;7.024;2023-04-01T03:55:17;10.00;99.90
30889;DHT22;51092;50.874;7.024;2023-04-01T03:56:20;10.10;99.90
30889;DHT22;51092;50.874;7.024;2023-04-01T03:57:21;10.10;99.90
30889;DHT22;51092;50.874;7.024;2023-04-01T03:58:24;10.10;99.90
30889;DHT22;51092;50.874;7.024;2023-04-01T03:59:25;10.20;99.90
30889;DHT22;51092;50.874;7.024;2023-04-01T04:00:28;10.20;99.90
30889;DHT22;51092;50.874;7.024;2023-04-01T04:01:29;10.20;99.60
30889;DHT22;51092;50.874;7.024;2023-04-01T04:02:32;10.20;99.10
30889;DHT22;51092;50.874;7.024;2023-04-01T04:03:33;10.30;99.20
30889;DHT22;51092;50.874;7.024;2023-04-01T04:04:36;10.20;99.60
30889;DHT22;51092;50.874;7.024;2023-04-01T04:05:37;10.20;98.80
30889;DHT22;51092;50.874;7.024;2023-04-01T04:06:40;10.30;97.90
30889;DHT22;51092;50.874;7.024;2023-04-01T04:07:42;10.30;98.80
30889;DHT22;51092;50.874;7.024;2023-04-01T04:08:43;10.30;98.50
30889;DHT22;51092;50.874;7.024;2023-04-01T04:09:45;10.30;96.50
30889;DHT22;51092;50.874;7.024;2023-04-01T04:10:54;10.30;97.60
30889;DHT22;51092;50.874;7.024;2023-04-01T04:11:57;10.30;96.10
30889;DHT22;51092;50.874;7.024;2023-04-01T04:12:58;10.40;96.00
30889;DHT22;51092;50.874;7.024;2023-04-01T04:14:01;10.40;96.50
30889;DHT22;51092;50.874;7.024;2023-04-01T04:15:04;10.40;96.20
30889;DHT22;51092;50.874;7.024;2023-04-01T04:16:06;10.40;96.20
30889;DHT22;51092;50.874;7.024;2023-04-01T04:17:10;10.40;96.20
30889;DHT22;51092;50.874;7.024;2023-04-01T04:18:17;10.40;96.40
30889;DHT22;51092;50.874;7.024;2023-04-01T04:19:18;10.40;96.40
30889;DHT22;51092;50.874;7.024;2023-04-01T04:20:21;10.40;95.80
30889;DHT22;51092;50.874;7.024;2023-04-01T04:21:22;10.50;96.20
30889;DHT22;51092;50.874;7.024;2023-04-01T04:22:25;10.50;95.80
30889;DHT22;51092;50.874;7.024;2023-04-01T04:23:26;10.50;95.70
30889;DHT22;51092;50.874;7.024;2023-04-01T04:24:30;10.50;96.40
30889;DHT22;51092;50.874;7.024;2023-04-01T04:25:32;10.50;96.10
30889;DHT22;51092;50.874;7.024;2023-04-01T04:26:36;10.40;96.00
30889;DHT22;51092;50.874;7.024;2023-04-01T04:27:37;10.40;95.70
30889;DHT22;51092;50.874;7.024;2023-04-01T04:28:40;10.50;96.70
30889;DHT22;51092;50.874;7.024;2023-04-01T04:29:42;10.50;96.60
30889;DHT22;51092;50.874;7.024;2023-04-01T04:30:44;10.50;97.10
30889;DHT22;51092;50.874;7.024;2023-04-01T04:31:46;10.50;97.20
30889;DHT22;51092;50.874;7.024;2023-04-01T04:32:48;10.50;96.10
30889;DHT22;51092;50.874;7.024;2023-04-01T04:33:50;10.50;96.60
30889;DHT22;51092;50.874;7.024;2023-04-01T04:34:52;10.50;96.70
30889;DHT22;51092;50.874;7.024;2023-04-01T04:35:56;10.50;96.60
30889;DHT22;51092;50.874;7.024;2023-04-01T04:36:59;10.40;98.30
30889;DHT22;51092;50.874;7.024;2023-04-01T04:38:00;10.50;97.60
30889;DHT22;51092;50.874;7.024;2023-04-01T04:39:03;10.40;98.50
30889;DHT22;51092;50.874;7.024;2023-04-01T04:40:05;10.50;97.10
30889;DHT22;51092;50.874;7.024;2023-04-01T04:41:09;10.50;97.50
30889;DHT22;51092;50.874;7.024;2023-04-01T04:42:12;10.50;97.40
30889;DHT22;51092;50.874;7.024;2023-04-01T04:43:16;10.40;97.00
30889;DHT22;51092;50.874;7.024;2023-04-01T04:44:18;10.40;98.30
30889;DHT22;51092;50.874;7.024;2023-04-01T04:45:20;10.40;98.50
30889;DHT22;51092;50.874;7.024;2023-04-01T04:46:22;10.40;98.30
30889;DHT22;51092;50.874;7.024;2023-04-01T04:47:25;10.40;98.80
30889;DHT22;51092;50.874;7.024;2023-04-01T04:48:26;10.30;99.20
30889;DHT22;51092;50.874;7.024;2023-04-01T04:49:29;10.30;99.90
30889;DHT22;51092;50.874;7.024;2023-04-01T04:50:30;10.30;99.90
30889;DHT22;51092;50.874;7.024;2023-04-01T04:51:33;10.30;99.90
30889;DHT22;51092;50.874;7.024;2023-04-01T04:52:35;10.40;99.90
30889;DHT22;51092;50.874;7.024;2023-04-01T04:53:37;10.30;99.90
30889;DHT22;51092;50.874;7.024;2023-04-01T04:54:39;10.30;99.90
30889;DHT22;51092;50.874;7.024;2023-04-01T04:55:43;10.20;99.90
30889;DHT22;51092;50.874;7.024;2023-04-01T04:56:45;10.20;99.90
30889;DHT22;51092;50.874;7.024;2023-04-01T04:57:49;10.20;99.90
30889;DHT22;51092;50.874;7.024;2023-04-01T04:58:50;10.10;99.90
30889;DHT22;51092;50.874;7.024;2023-04-01T04:59:53;10.10;99.90
30889;DHT22;51092;50.874;7.024;2023-04-01T05:00:55;10.10;99.90
30889;DHT22;51092;50.874;7.024;2023-04-01T05:01:57;10.10;99.90
30889;DHT22;51092;50.874;7.024;2023-04-01T05:02:59;10.00;99.90
30889;DHT22;51092;50.874;7.024;2023-04-01T05:04:01;10.00;99.90
30889;DHT22;51092;50.874;7.024;2023-04-01T05:05:03;10.00;99.90
30889;DHT22;51092;50.874;7.024;2023-04-01T05:06:07;10.00;99.90
30889;DHT22;51092;50.874;7.024;2023-04-01T05:07:09;10.00;99.90
30889;DHT22;51092;50.874;7.024;2023-04-01T05:08:11;10.00;99.90
30889;DHT22;51092;50.874;7.024;2023-04-01T05:09:12;10.00;99.90
30889;DHT22;51092;50.874;7.024;2023-04-01T05:10:14;10.00;99.90
30889;DHT22;51092;50.874;7.024;2023-04-01T05:11:17;10.00;99.90
30889;DHT22;51092;50.874;7.024;2023-04-01T05:12:20;10.00;99.90
30889;DHT22;51092;50.874;7.024;2023-04-01T05:13:23;10.00;99.90
30889;DHT22;51092;50.874;7.024;2023-04-01T05:14:26;10.00;99.90
30889;DHT22;51092;50.874;7.024;2023-04-01T05:15:27;10.00;99.90
30889;DHT22;51092;50.874;7.024;2023-04-01T05:16:30;10.00;99.90
30889;DHT22;51092;50.874;7.024;2023-04-01T05:17:32;10.00;99.90
30889;DHT22;51092;50.874;7.024;2023-04-01T05:18:35;10.00;99.90
30889;DHT22;51092;50.874;7.024;2023-04-01T05:19:36;10.00;99.90
30889;DHT22;51092;50.874;7.024;2023-04-01T05:20:44;10.00;99.90
30889;DHT22;51092;50.874;7.024;2023-04-01T05:21:46;10.00;99.90
30889;DHT22;51092;50.874;7.024;2023-04-01T05:22:49;10.00;99.90
30889;DHT22;51092;50.874;7.024;2023-04-01T05:23:50;10.00;99.90
30889;DHT22;51092;50.874;7.024;2023-04-01T05:24:52;10.00;99.90
30889;DHT22;51092;50.874;7.024;2023-04-01T05:25:54;10.00;99.90
30889;DHT22;51092;50.874;7.024;2023-04-01T05:26:58;10.00;99.90
30889;DHT22;51092;50.874;7.024;2023-04-01T05:28:00;10.10;99.90
30889;DHT22;51092;50.874;7.024;2023-04-01T05:29:04;10.00;99.90
30889;DHT22;51092;50.874;7.024;2023-04-01T05:30:06;10.00;99.90
30889;DHT22;51092;50.874;7.024;2023-04-01T05:31:09;10.00;99.90
30889;DHT22;51092;50.874;7.024;2023-04-01T05:32:10;10.10;99.90
30889;DHT22;51092;50.874;7.024;2023-04-01T05:33:13;10.00;99.90
30889;DHT22;51092;50.874;7.024;2023-04-01T05:34:14;10.00;99.90
30889;DHT22;51092;50.874;7.024;2023-04-01T05:35:17;10.00;99.90
30889;DHT22;51092;50.874;7.024;2023-04-01T05:36:18;10.10;99.90
30889;DHT22;51092;50.874;7.024;2023-04-01T05:37:21;10.10;99.90
30889;DHT22;51092;50.874;7.024;2023-04-01T05:38:24;10.10;99.90
30889;DHT22;51092;50.874;7.024;2023-04-01T05:39:26;10.10;99.90
30889;DHT22;51092;50.874;7.024;2023-04-01T05:40:28;10.10;99.90
30889;DHT22;51092;50.874;7.024;2023-04-01T05:41:30;10.10;99.90
30889;DHT22;51092;50.874;7.024;2023-04-01T05:42:32;10.10;99.90
30889;DHT22;51092;50.874;7.024;2023-04-01T05:43:36;10.10;99.90
30889;DHT22;51092;50.874;7.024;2023-04-01T05:44:39;10.10;99.90
30889;DHT22;51092;50.874;7.024;2023-04-01T05:45:41;10.10;99.90
30889;DHT22;51092;50.874;7.024;2023-04-01T05:46:43;10.10;99.90
30889;DHT22;51092;50.874;7.024;2023-04-01T05:47:45;10.10;99.90
30889;DHT22;51092;50.874;7.024;2023-04-01T05:48:47;10.10;99.90
30889;DHT22;51092;50.874;7.024;2023-04-01T05:49:49;10.10;99.90
30889;DHT22;51092;50.874;7.024;2023-04-01T05:50:51;10.00;99.90
30889;DHT22;51092;50.874;7.024;2023-04-01T05:51:53;10.10;99.90
30889;DHT22;51092;50.874;7.024;2023-04-01T05:52:55;10.10;99.90
30889;DHT22;51092;50.874;7.024;2023-04-01T05:53:57;10.10;99.90
30889;DHT22;51092;50.874;7.024;2023-04-01T05:54:59;10.10;99.90
30889;DHT22;51092;50.874;7.024;2023-04-01T05:56:05;10.10;99.90
30889;DHT22;51092;50.874;7.024;2023-04-01T05:57:06;10.20;99.90
30889;DHT22;51092;50.874;7.024;2023-04-01T05:58:09;10.20;99.90
30889;DHT22;51092;50.874;7.024;2023-04-01T05:59:11;10.10;99.90
30889;DHT22;51092;50.874;7.024;2023-04-01T06:00:16;10.20;99.90
30889;DHT22;51092;50.874;7.024;2023-04-01T06:01:18;10.20;99.90
30889;DHT22;51092;50.874;7.024;2023-04-01T06:02:21;10.20;99.90
30889;DHT22;51092;50.874;7.024;2023-04-01T06:03:22;10.20;99.90
30889;DHT22;51092;50.874;7.024;2023-04-01T06:04:25;10.20;99.90
30889;DHT22;51092;50.874;7.024;2023-04-01T06:05:29;10.30;99.90
30889;DHT22;51092;50.874;7.024;2023-04-01T06:06:37;10.20;99.90
30889;DHT22;51092;50.874;7.024;2023-04-01T06:07:39;10.20;99.90
30889;DHT22;51092;50.874;7.024;2023-04-01T06:08:42;10.20;99.90
30889;DHT22;51092;50.874;7.024;2023-04-01T06:09:45;10.20;99.90
30889;DHT22;51092;50.874;7.024;2023-04-01T06:11:03;10.20;99.90
30889;DHT22;51092;50.874;7.024;2023-04-01T06:12:33;10.20;99.90
30889;DHT22;51092;50.874;7.024;2023-04-01T06:13:58;10.20;99.90
30889;DHT22;51092;50.874;7.024;2023-04-01T06:15:20;10.20;99.90
30889;DHT22;51092;50.874;7.024;2023-04-01T06:16:34;10.20;99.90
30889;DHT22;51092;50.874;7.024;2023-04-01T06:17:59;10.20;99.90
30889;DHT22;51092;50.874;7.024;2023-04-01T06:19:22;10.30;99.90
30889;DHT22;51092;50.874;7.024;2023-04-01T06:20:30;10.30;99.90
30889;DHT22;51092;50.874;7.024;2023-04-01T06:23:49;10.30;99.90
30889;DHT22;51092;50.874;7.024;2023-04-01T06:25:04;10.20;99.90
30889;DHT22;51092;50.874;7.024;2023-04-01T06:26:20;10.20;99.90
30889;DHT22;51092;50.874;7.024;2023-04-01T06:27:36;10.20;99.90
30889;DHT22;51092;50.874;7.024;2023-04-01T06:28:59;10.20;99.90
30889;DHT22;51092;50.874;7.024;2023-04-01T06:30:24;10.30;99.90
30889;DHT22;51092;50.874;7.024;2023-04-01T06:31:46;10.30;99.90
30889;DHT22;51092;50.874;7.024;2023-04-01T06:33:01;10.30;99.90
30889;DHT22;51092;50.874;7.024;2023-04-01T06:34:19;10.40;99.90
30889;DHT22;51092;50.874;7.024;2023-04-01T06:35:35;10.40;99.90
30889;DHT22;51092;50.874;7.024;2023-04-01T06:36:54;10.40;99.90
30889;DHT22;51092;50.874;7.024;2023-04-01T06:39:38;10.50;99.90
30889;DHT22;51092;50.874;7.024;2023-04-01T06:41:17;10.50;99.90
30889;DHT22;51092;50.874;7.024;2023-04-01T06:42:31;10.50;99.90
30889;DHT22;51092;50.874;7.024;2023-04-01T06:43:46;10.50;99.90
30889;DHT22;51092;50.874;7.024;2023-04-01T06:45:00;10.50;99.90
30889;DHT22;51092;50.874;7.024;2023-04-01T06:46:11;10.50;99.90
30889;DHT22;51092;50.874;7.024;2023-04-01T06:47:27;10.50;99.90
30889;DHT22;51092;50.874;7.024;2023-04-01T06:48:40;10.50;99.90
30889;DHT22;51092;50.874;7.024;2023-04-01T06:49:52;10.60;99.90
30889;DHT22;51092;50.874;7.024;2023-04-01T06:51:04;10.60;99.90
30889;DHT22;51092;50.874;7.024;2023-04-01T06:52:19;10.70;99.90
30889;DHT22;51092;50.874;7.024;2023-04-01T06:53:30;10.70;99.90
30889;DHT22;51092;50.874;7.024;2023-04-01T06:54:36;10.70;99.90
30889;DHT22;51092;50.874;7.024;2023-04-01T06:55:42;10.70;99.90
30889;DHT22;51092;50.874;7.024;2023-04-01T06:56:49;10.70;99.90